Time;durP1;ratioP1;P1;durP2;ratioP2;P2;SDS_P1;SDS_P2;PMS_P1;PMS_P2;Temp;Humidity;BMP_temperature;BMP_pressure;BME280_temperature;BME280_humidity;BME280_pressure;Samples;Min_cycle;Max_cycle;Signal;HPM_P1;HPM_P2
2022/10/01 00:00:12;;;;;;;6.47;5.35;;;;;;;10.13;100.00;100241.31;5089347;28;20028;-63
2022/10/01 00:02:38;;;;;;;5.97;5.47;;;;;;;10.15;100.00;100242.19;5088779;28;20034;-63
2022/10/01 00:05:10;;;;;;;6.32;5.72;;;;;;;10.15;100.00;100237.00;5089332;28;20023;-63
2022/10/01 00:07:43;;;;;;;7.55;5.88;;;;;;;10.16;100.00;100226.72;5088203;28;20036;-63
2022/10/01 00:10:11;;;;;;;6.00;5.40;;;;;;;10.13;100.00;100210.25;5088624;28;20487;-63
2022/10/01 00:12:38;;;;;;;6.38;5.45;;;;;;;10.14;100.00;100214.56;5088189;28;20024;-63
2022/10/01 00:15:08;;;;;;;5.50;5.00;;;;;;;10.14;100.00;100206.78;5088813;28;20486;-63
2022/10/01 00:17:35;;;;;;;5.78;5.07;;;;;;;10.16;100.00;100211.19;5087761;28;20351;-63
2022/10/01 00:20:01;;;;;;;6.15;5.13;;;;;;;10.13;100.00;100195.56;5074358;28;20422;-63
2022/10/01 00:22:30;;;;;;;6.05;5.28;;;;;;;10.09;100.00;100194.59;5084119;28;20067;-63
2022/10/01 00:24:56;;;;;;;5.82;5.25;;;;;;;10.09;100.00;100178.22;5082672;28;20519;-63
2022/10/01 00:27:22;;;;;;;6.18;5.57;;;;;;;10.09;100.00;100189.44;5075884;28;20212;-63
2022/10/01 00:29:47;;;;;;;7.25;5.10;;;;;;;10.07;100.00;100185.94;5085900;28;20460;-64
2022/10/01 00:32:13;;;;;;;5.90;5.43;;;;;;;10.08;100.00;100181.63;5076767;28;20031;-63
2022/10/01 00:34:38;;;;;;;6.13;5.10;;;;;;;10.06;100.00;100189.38;5088017;28;20028;-63
2022/10/01 00:37:03;;;;;;;5.72;4.88;;;;;;;10.07;100.00;100179.91;5088246;28;20528;-63
2022/10/01 00:39:29;;;;;;;6.32;5.20;;;;;;;10.08;100.00;100176.44;5079703;28;20032;-63
2022/10/01 00:41:54;;;;;;;5.80;5.30;;;;;;;10.08;100.00;100160.91;5081477;28;20050;-63
2022/10/01 00:44:34;;;;;;;4.93;4.53;;;;;;;10.11;100.00;100152.38;5087944;28;20687;-63
2022/10/01 00:47:14;;;;;;;5.75;5.07;;;;;;;10.13;100.00;100176.59;5088332;28;20111;-63
2022/10/01 00:49:41;;;;;;;4.73;4.30;;;;;;;10.14;100.00;100180.91;5088575;28;20419;-63
2022/10/01 00:52:12;;;;;;;6.20;4.65;;;;;;;10.13;100.00;100180.03;5087925;28;20385;-63
2022/10/01 00:54:49;;;;;;;5.47;4.97;;;;;;;10.13;100.00;100176.59;5088298;28;20028;-63
2022/10/01 00:57:17;;;;;;;4.60;4.20;;;;;;;10.13;100.00;100179.16;5088181;28;20020;-62
2022/10/01 00:59:44;;;;;;;5.45;4.95;;;;;;;10.14;100.00;100180.91;5088227;28;20039;-62
2022/10/01 01:02:10;;;;;;;5.03;4.55;;;;;;;10.14;100.00;100174.03;5087537;28;20035;-63
2022/10/01 01:04:37;;;;;;;5.03;4.63;;;;;;;10.15;100.00;100172.28;5087905;28;20020;-63
2022/10/01 01:07:03;;;;;;;4.75;4.30;;;;;;;10.13;100.00;100179.16;5087749;28;20093;-63
2022/10/01 01:09:33;;;;;;;6.53;4.75;;;;;;;10.09;100.00;100168.72;5087699;28;20460;-63
2022/10/01 01:12:24;;;;;;;6.85;4.70;;;;;;;10.09;100.00;100175.63;5087881;28;20024;-63
2022/10/01 01:15:15;;;;;;;5.43;4.13;;;;;;;10.10;100.00;100174.78;5087686;28;20476;-63
2022/10/01 01:17:55;;;;;;;7.28;5.13;;;;;;;10.06;100.00;100137.59;5087927;28;20612;-62
2022/10/01 01:20:48;;;;;;;5.53;4.93;;;;;;;9.99;100.00;100127.94;5087950;28;20020;-62
2022/10/01 01:23:13;;;;;;;5.40;4.88;;;;;;;10.01;100.00;100135.72;5087496;28;20039;-62
2022/10/01 01:25:44;;;;;;;5.07;4.57;;;;;;;10.00;100.00;100118.47;5087062;28;20391;-62
2022/10/01 01:28:22;;;;;;;4.85;4.45;;;;;;;9.93;100.00;100083.81;5087430;28;20399;-62
2022/10/01 01:30:50;;;;;;;5.25;4.72;;;;;;;9.88;100.00;100052.63;5087279;28;20020;-62
2022/10/01 01:33:19;;;;;;;5.35;4.53;;;;;;;9.85;100.00;100037.94;5087009;28;20407;-62
2022/10/01 01:35:50;;;;;;;6.97;5.43;;;;;;;9.81;100.00;100028.34;5086828;28;20039;-62
2022/10/01 01:38:26;;;;;;;4.95;4.20;;;;;;;9.81;100.00;100006.75;5086880;28;20030;-62
2022/10/01 01:40:54;;;;;;;4.57;4.18;;;;;;;9.77;100.00;100000.63;5086932;28;20063;-62
2022/10/01 01:43:25;;;;;;;4.55;4.10;;;;;;;9.76;100.00;99957.50;5087127;28;20082;-62
2022/10/01 01:45:53;;;;;;;4.65;4.20;;;;;;;9.74;100.00;99985.06;5087116;28;20024;-62
2022/10/01 01:48:21;;;;;;;6.45;4.43;;;;;;;9.78;100.00;100061.03;5086846;28;20020;-63
2022/10/01 01:50:55;;;;;;;5.25;4.80;;;;;;;9.74;100.00;100060.09;5086834;28;20027;-62
2022/10/01 01:53:21;;;;;;;4.88;4.20;;;;;;;9.78;100.00;100071.38;5086919;28;20066;-62
2022/10/01 01:55:48;;;;;;;4.68;4.28;;;;;;;9.77;100.00;100061.88;5087135;28;20020;-62
2022/10/01 01:58:15;;;;;;;4.22;3.83;;;;;;;9.77;100.00;100026.50;5087389;28;20464;-62
2022/10/01 02:00:40;;;;;;;3.67;3.38;;;;;;;9.77;100.00;100042.03;5087059;28;20530;-62
2022/10/01 02:03:06;;;;;;;4.47;4.07;;;;;;;9.74;100.00;100047.16;5087211;28;20024;-62
2022/10/01 02:05:42;;;;;;;3.80;3.50;;;;;;;9.74;100.00;100036.81;5086598;28;20052;-62
2022/10/01 02:08:20;;;;;;;3.80;3.45;;;;;;;9.72;100.00;100046.25;5087229;28;20451;-63
2022/10/01 02:11:02;;;;;;;3.70;3.40;;;;;;;9.72;100.00;100062.66;5087379;28;20383;-63
2022/10/01 02:13:33;;;;;;;4.63;3.60;;;;;;;9.71;100.00;100047.09;5086799;28;20024;-63
2022/10/01 02:16:17;;;;;;;4.18;3.78;;;;;;;9.73;100.00;100045.41;5087022;28;20047;-63
2022/10/01 02:19:04;;;;;;;3.95;3.30;;;;;;;9.71;100.00;100042.75;5087342;28;20371;-63
2022/10/01 02:21:32;;;;;;;3.40;3.10;;;;;;;9.73;100.00;100046.28;5086546;28;20022;-62
2022/10/01 02:24:18;;;;;;;3.75;2.78;;;;;;;9.72;100.00;100046.25;5086809;28;20034;-62
2022/10/01 02:26:47;;;;;;;3.88;3.47;;;;;;;9.70;100.00;100033.28;5087069;28;20024;-62
2022/10/01 02:29:17;;;;;;;2.67;2.47;;;;;;;9.70;100.00;100034.97;5087302;28;20059;-62
2022/10/01 02:31:46;;;;;;;3.85;3.35;;;;;;;9.70;100.00;100027.22;5086019;28;20380;-63
2022/10/01 02:34:14;;;;;;;3.60;3.30;;;;;;;9.71;100.00;100031.56;5080757;28;20205;-62
2022/10/01 02:36:44;;;;;;;4.70;3.63;;;;;;;9.67;100.00;100019.38;5072847;28;20508;-62
2022/10/01 02:39:12;;;;;;;8.57;4.25;;;;;;;9.68;100.00;100016.84;5076915;28;20033;-62
2022/10/01 02:41:38;;;;;;;3.35;2.70;;;;;;;9.71;100.00;100021.22;5070353;28;20466;-63
2022/10/01 02:44:14;;;;;;;2.80;2.60;;;;;;;9.73;100.00;99991.09;5065038;28;20106;-62
2022/10/01 02:46:46;;;;;;;2.65;2.45;;;;;;;9.71;100.00;99995.34;5086876;28;20027;-62
2022/10/01 02:49:12;;;;;;;;;;;;;;;9.73;100.00;99999.69;5072537;28;20153;-62
2022/10/01 02:51:52;;;;;;;2.63;2.42;;;;;;;9.73;100.00;99985.91;5090576;28;20014;-62
2022/10/01 02:54:38;;;;;;;2.80;2.60;;;;;;;9.73;100.00;99993.69;5090040;28;20054;-62
2022/10/01 02:57:21;;;;;;;2.88;2.67;;;;;;;9.75;100.00;100009.22;5090074;28;20055;-62
2022/10/01 02:59:48;;;;;;;2.50;2.30;;;;;;;9.74;100.00;99995.41;5090716;28;20023;-62
2022/10/01 03:02:14;;;;;;;3.05;2.55;;;;;;;9.75;100.00;99997.13;5090155;28;20024;-62
2022/10/01 03:04:39;;;;;;;2.60;2.40;;;;;;;9.78;100.00;100012.75;5090340;28;20605;-62
2022/10/01 03:07:05;;;;;;;3.15;1.83;;;;;;;9.79;100.00;100006.72;5089574;28;20030;-62
2022/10/01 03:09:31;;;;;;;3.08;1.67;;;;;;;9.79;100.00;100004.13;5089992;28;20448;-63
2022/10/01 03:11:57;;;;;;;2.22;2.00;;;;;;;9.82;100.00;99980.91;5089795;28;20059;-62
2022/10/01 03:14:23;;;;;;;2.92;1.90;;;;;;;9.81;100.00;99994.69;5089799;28;20434;-62
2022/10/01 03:16:49;;;;;;;2.28;1.95;;;;;;;9.82;100.00;99987.81;5089751;28;20027;-62
2022/10/01 03:19:14;;;;;;;2.63;1.92;;;;;;;9.82;100.00;99996.44;5089853;28;20024;-62
2022/10/01 03:21:40;;;;;;;2.22;2.03;;;;;;;9.85;100.00;99986.19;5089721;28;20472;-62
2022/10/01 03:24:05;;;;;;;1.60;1.50;;;;;;;9.86;100.00;99992.19;5089235;28;20427;-62
2022/10/01 03:26:30;;;;;;;1.90;1.80;;;;;;;9.89;100.00;99984.53;5089670;28;20021;-62
2022/10/01 03:28:56;;;;;;;2.70;1.80;;;;;;;9.91;100.00;99993.16;5089665;28;20016;-62
2022/10/01 03:31:21;;;;;;;2.00;1.80;;;;;;;9.95;100.00;99991.53;5088827;28;20031;-62
2022/10/01 03:33:46;;;;;;;1.67;1.58;;;;;;;9.96;100.00;100001.06;5090063;28;20027;-62
2022/10/01 03:36:11;;;;;;;2.70;1.52;;;;;;;9.97;100.00;100003.66;5089507;28;20479;-62
2022/10/01 03:38:37;;;;;;;2.15;1.50;;;;;;;9.99;100.00;99997.63;5089257;28;20024;-62
2022/10/01 03:41:02;;;;;;;2.75;1.55;;;;;;;10.00;100.00;100002.84;5089043;28;20008;-62
2022/10/01 03:43:27;;;;;;;1.30;1.20;;;;;;;10.00;100.00;99996.81;5089273;28;20440;-62
2022/10/01 03:45:54;;;;;;;1.50;1.20;;;;;;;10.03;100.00;99996.88;5089543;28;20132;-62
2022/10/01 03:48:19;;;;;;;1.00;1.00;;;;;;;10.04;100.00;99981.38;5089590;28;20047;-62
2022/10/01 03:50:56;;;;;;;1.40;1.10;;;;;;;10.06;100.00;99995.22;5089719;28;20039;-63
2022/10/01 03:53:22;;;;;;;1.10;0.98;;;;;;;10.08;100.00;99990.94;5089255;28;20468;-62
2022/10/01 03:55:47;;;;;;;1.00;0.90;;;;;;;10.11;100.00;100007.41;5088961;28;20050;-62
2022/10/01 03:58:13;;;;;;;2.10;1.25;;;;;;;10.14;100.00;99999.69;5089125;28;20542;-62
2022/10/01 04:00:38;;;;;;;1.17;1.00;;;;;;;10.15;100.00;99996.22;5089163;28;20016;-62
2022/10/01 04:03:03;;;;;;;1.45;0.85;;;;;;;10.16;100.00;99993.72;5088358;28;20491;-62
2022/10/01 04:05:28;;;;;;;1.00;0.90;;;;;;;10.17;100.00;100002.31;5088821;28;20024;-62
2022/10/01 04:07:54;;;;;;;1.02;0.70;;;;;;;10.19;100.00;100005.81;5088767;28;20027;-62
2022/10/01 04:10:19;;;;;;;1.02;0.70;;;;;;;10.21;100.00;100007.63;5088879;28;20360;-62
2022/10/01 04:12:44;;;;;;;0.65;0.60;;;;;;;10.24;100.00;100011.97;5088650;28;20028;-62
2022/10/01 04:15:09;;;;;;;0.93;0.50;;;;;;;10.26;100.00;100014.56;5088353;28;20028;-62
2022/10/01 04:17:36;;;;;;;0.73;0.73;;;;;;;10.29;100.00;100010.34;5087199;28;20027;-62
2022/10/01 04:20:01;;;;;;;1.02;0.77;;;;;;;10.30;100.00;100014.69;5088559;28;20051;-62
2022/10/01 04:22:26;;;;;;;1.27;0.70;;;;;;;10.34;100.00;100007.84;5088448;28;20051;-62
2022/10/01 04:24:52;;;;;;;0.80;0.77;;;;;;;10.36;100.00;100011.31;5088971;28;20046;-62
2022/10/01 04:27:18;;;;;;;3.08;0.57;;;;;;;10.38;100.00;100013.97;5088982;28;20031;-62
2022/10/01 04:29:43;;;;;;;0.60;0.60;;;;;;;10.41;100.00;100019.19;5086326;28;20029;-62
2022/10/01 04:32:08;;;;;;;0.65;0.43;;;;;;;10.42;100.00;100016.63;5076504;28;20026;-62
2022/10/01 04:34:52;;;;;;;0.85;0.50;;;;;;;10.45;100.00;100021.03;5088138;28;20085;-62
2022/10/01 04:37:18;;;;;;;0.90;0.50;;;;;;;10.48;100.00;100023.69;5088296;28;20112;-62
2022/10/01 04:39:43;;;;;;;0.82;0.52;;;;;;;10.51;100.00;100026.34;5088251;28;20024;-62
2022/10/01 04:42:09;;;;;;;0.85;0.52;;;;;;;10.52;100.00;100030.66;5087289;28;20362;-63
2022/10/01 04:44:34;;;;;;;2.63;0.60;;;;;;;10.56;100.00;100031.59;5087313;28;20038;-63
2022/10/01 04:47:00;;;;;;;1.77;0.70;;;;;;;10.56;100.00;100027.28;5087741;28;20034;-62
2022/10/01 04:49:25;;;;;;;1.02;0.88;;;;;;;10.58;100.00;100032.50;5088525;28;20572;-62
2022/10/01 04:51:51;;;;;;;1.58;0.68;;;;;;;10.59;100.00;100026.50;5088063;28;20099;-62
2022/10/01 04:54:16;;;;;;;1.00;0.70;;;;;;;10.63;100.00;100037.78;5075634;28;20023;-62
2022/10/01 04:56:41;;;;;;;1.27;0.80;;;;;;;10.65;100.00;100028.34;5067181;28;20097;-62
2022/10/01 04:59:06;;;;;;;2.65;0.85;;;;;;;10.66;100.00;100030.06;5066045;28;20025;-63
2022/10/01 05:01:32;;;;;;;1.80;1.00;;;;;;;10.68;100.00;100043.94;5067417;28;20020;-63
2022/10/01 05:03:57;;;;;;;1.50;1.17;;;;;;;10.71;100.00;100037.91;5066445;28;20017;-63
2022/10/01 05:06:23;;;;;;;3.00;1.00;;;;;;;10.72;100.00;100045.72;5065705;28;20024;-63
2022/10/01 05:08:48;;;;;;;2.15;1.05;;;;;;;10.75;100.00;100055.28;5066991;28;20064;-63
2022/10/01 05:11:14;;;;;;;1.23;0.90;;;;;;;10.76;100.00;100042.34;5066180;28;20035;-63
2022/10/01 05:13:40;;;;;;;1.63;1.50;;;;;;;10.78;100.00;100056.19;5066278;28;20031;-63
2022/10/01 05:16:06;;;;;;;1.20;1.08;;;;;;;10.80;100.00;100049.34;5067459;28;20032;-63
2022/10/01 05:18:31;;;;;;;1.30;1.13;;;;;;;10.81;100.00;100060.59;5066973;28;20040;-63
2022/10/01 05:20:57;;;;;;;5.35;1.55;;;;;;;10.84;100.00;100059.75;5067628;28;20111;-63
2022/10/01 05:23:22;;;;;;;2.65;1.50;;;;;;;10.86;100.00;100060.66;5067194;28;20028;-63
2022/10/01 05:25:47;;;;;;;2.60;1.92;;;;;;;10.85;100.00;100057.19;5067191;28;20365;-63
2022/10/01 05:28:13;;;;;;;1.98;1.70;;;;;;;10.88;100.00;100067.59;5067065;28;20029;-63
2022/10/01 05:30:38;;;;;;;4.35;2.28;;;;;;;10.89;100.00;100073.66;5066053;28;20052;-63
2022/10/01 05:33:04;;;;;;;2.00;1.80;;;;;;;10.91;100.00;100077.16;5051926;28;20417;-63
2022/10/01 05:35:30;;;;;;;2.67;2.35;;;;;;;10.93;100.00;100075.47;5046804;28;20029;-63
2022/10/01 05:37:57;;;;;;;2.10;1.92;;;;;;;10.94;100.00;100092.75;5046583;28;20427;-63
2022/10/01 05:40:26;;;;;;;2.72;2.03;;;;;;;10.95;100.00;100094.53;5058828;28;20094;-63
2022/10/01 05:42:51;;;;;;;1.95;1.85;;;;;;;10.96;100.00;100090.19;5056645;28;20048;-63
2022/10/01 05:45:21;;;;;;;4.28;2.25;;;;;;;10.99;100.00;100090.28;5058803;28;20032;-63
2022/10/01 05:47:47;;;;;;;3.53;2.53;;;;;;;11.00;100.00;100087.72;5060369;28;20052;-63
2022/10/01 05:50:13;;;;;;;2.70;2.50;;;;;;;11.00;100.00;100087.72;5048492;28;20143;-64
2022/10/01 05:52:41;;;;;;;4.75;2.63;;;;;;;11.02;100.00;100096.41;5051922;28;20107;-64
2022/10/01 05:55:07;;;;;;;3.25;2.95;;;;;;;11.04;100.00;100110.22;5057386;28;20036;-63
2022/10/01 05:57:32;;;;;;;2.97;2.67;;;;;;;11.07;100.00;100116.31;5054546;28;20373;-63
2022/10/01 05:59:57;;;;;;;3.60;3.08;;;;;;;11.08;100.00;100115.50;5058933;28;20119;-63
2022/10/01 06:02:23;;;;;;;3.20;3.00;;;;;;;11.10;100.00;100119.84;5059749;28;20465;-63
2022/10/01 06:04:48;;;;;;;3.65;3.17;;;;;;;11.12;100.00;100117.28;5058964;28;20036;-63
2022/10/01 06:07:13;;;;;;;4.05;3.70;;;;;;;11.13;100.00;100116.44;5058390;28;20031;-62
2022/10/01 06:09:38;;;;;;;4.00;3.70;;;;;;;11.15;100.00;100119.94;5059331;28;20678;-63
2022/10/01 06:12:07;;;;;;;4.60;4.20;;;;;;;11.16;100.00;100114.78;5055633;28;20024;-63
2022/10/01 06:14:32;;;;;;;4.32;3.95;;;;;;;11.18;100.00;100112.22;5050360;28;20031;-62
2022/10/01 06:16:58;;;;;;;4.20;3.90;;;;;;;11.20;100.00;100118.31;5047037;28;20463;-62
2022/10/01 06:19:23;;;;;;;5.80;5.05;;;;;;;11.21;100.00;100117.44;5046977;28;20574;-62
2022/10/01 06:21:48;;;;;;;4.88;4.50;;;;;;;11.22;100.00;100124.41;5045866;28;20078;-63
2022/10/01 06:24:14;;;;;;;5.50;5.00;;;;;;;11.22;100.00;100129.59;5046328;28;20039;-62
2022/10/01 06:26:39;;;;;;;5.63;5.13;;;;;;;11.23;100.00;100131.31;5049103;28;20048;-62
2022/10/01 06:29:04;;;;;;;5.80;5.00;;;;;;;11.26;100.00;100140.91;5051126;28;20067;-63
2022/10/01 06:31:29;;;;;;;5.97;4.90;;;;;;;11.27;100.00;100135.72;5055375;28;20032;-62
2022/10/01 06:33:55;;;;;;;4.90;4.47;;;;;;;11.29;100.00;100139.22;5048667;28;20412;-62
2022/10/01 06:36:20;;;;;;;5.15;4.72;;;;;;;11.31;100.00;100140.97;5051367;28;20055;-63
2022/10/01 06:38:48;;;;;;;5.90;5.38;;;;;;;11.33;100.00;100139.28;5052468;28;20441;-63
2022/10/01 06:41:14;;;;;;;5.47;4.97;;;;;;;11.35;100.00;100145.38;5050155;28;20413;-63
2022/10/01 06:43:39;;;;;;;5.70;5.22;;;;;;;11.36;100.00;100141.91;5049642;28;20088;-63
2022/10/01 06:46:04;;;;;;;5.38;4.60;;;;;;;11.38;100.00;100150.59;5051570;28;20036;-63
2022/10/01 06:48:31;;;;;;;5.70;5.20;;;;;;;11.40;100.00;100144.56;5050392;28;20655;-63
2022/10/01 06:50:57;;;;;;;5.57;5.10;;;;;;;11.44;100.00;100155.88;5067917;28;20259;-63
2022/10/01 06:53:23;;;;;;;6.57;6.07;;;;;;;11.47;100.00;100155.97;5070381;28;20097;-63
2022/10/01 06:55:51;;;;;;;6.53;5.93;;;;;;;11.49;100.00;100164.66;5074753;28;20060;-63
2022/10/01 06:58:19;;;;;;;7.15;6.38;;;;;;;11.53;100.00;100169.03;5064471;28;20033;-63
2022/10/01 07:00:45;;;;;;;6.75;6.22;;;;;;;11.59;100.00;100159.59;5068098;28;20032;-63
2022/10/01 07:03:14;;;;;;;7.20;6.50;;;;;;;11.64;100.00;100163.13;5066581;28;20512;-63
2022/10/01 07:05:40;;;;;;;7.35;6.72;;;;;;;11.70;100.00;100168.44;5066760;28;20029;-63
2022/10/01 07:08:06;;;;;;;8.88;7.85;;;;;;;11.75;100.00;100161.59;5067754;28;20707;-63
2022/10/01 07:10:33;;;;;;;9.32;7.13;;;;;;;11.82;100.00;100162.56;5067955;28;20488;-64
2022/10/01 07:13:12;;;;;;;7.93;7.22;;;;;;;11.91;100.00;100168.78;5068351;28;20024;-63
2022/10/01 07:15:38;;;;;;;10.20;7.53;;;;;;;11.94;100.00;100172.28;5077104;28;20063;-64
2022/10/01 07:18:04;;;;;;;9.70;7.57;;;;;;;11.97;100.00;100177.53;5060515;28;20091;-63
2022/10/01 07:20:32;;;;;;;8.07;7.28;;;;;;;11.99;100.00;100170.66;5048165;28;20366;-63
2022/10/01 07:22:58;;;;;;;8.30;7.60;;;;;;;12.05;100.00;100179.38;5050652;28;20032;-63
2022/10/01 07:25:24;;;;;;;8.55;7.68;;;;;;;12.13;100.00;100177.78;5053030;28;20056;-63
2022/10/01 07:27:58;;;;;;;9.10;8.30;;;;;;;12.25;100.00;100185.75;5050280;28;20125;-63
2022/10/01 07:30:24;;;;;;;9.23;8.13;;;;;;;12.35;100.00;100183.31;5049725;28;20052;-63
2022/10/01 07:32:50;;;;;;;9.27;8.38;;;;;;;12.43;100.00;100186.88;5060629;28;20024;-63
2022/10/01 07:35:15;;;;;;;9.25;8.18;;;;;;;12.48;100.00;100193.00;5058192;28;20102;-63
2022/10/01 07:37:41;;;;;;;8.18;7.38;;;;;;;12.53;100.00;100198.28;5051946;28;20029;-63
2022/10/01 07:40:07;;;;;;;6.97;6.40;;;;;;;12.54;100.00;100205.22;5051575;28;20107;-64
2022/10/01 07:42:33;;;;;;;7.70;7.10;;;;;;;12.55;100.00;100213.88;5056795;28;20697;-63
2022/10/01 07:44:58;;;;;;;8.75;7.90;;;;;;;12.53;100.00;100213.00;5050496;28;20035;-63
2022/10/01 07:47:23;;;;;;;10.88;7.63;;;;;;;12.51;100.00;100219.88;5049084;28;20397;-63
2022/10/01 07:49:48;;;;;;;9.52;8.35;;;;;;;12.48;100.00;100221.59;5051107;28;20098;-64
2022/10/01 07:52:14;;;;;;;9.63;7.35;;;;;;;12.45;100.00;100231.94;5051454;28;20103;-63
2022/10/01 07:54:39;;;;;;;11.73;7.82;;;;;;;12.43;100.00;100233.63;5068885;28;20025;-63
2022/10/01 07:57:05;;;;;;;9.73;8.65;;;;;;;12.41;100.00;100240.53;5069235;28;20086;-64
2022/10/01 07:59:32;;;;;;;11.07;8.45;;;;;;;12.39;100.00;100242.25;5068578;28;20082;-63
2022/10/01 08:01:57;;;;;;;9.40;8.38;;;;;;;12.37;100.00;100251.75;5067876;28;20337;-63
2022/10/01 08:07:07;;;;;;;11.23;9.30;;;;;;;12.37;100.00;100259.53;5068835;28;20127;-63
2022/10/01 08:09:33;;;;;;;11.63;9.93;;;;;;;12.36;100.00;100257.78;5067920;28;20110;-63
2022/10/01 08:11:58;;;;;;;10.18;9.20;;;;;;;12.37;100.00;100256.94;5075408;28;20019;-63
2022/10/01 08:14:25;;;;;;;11.93;10.73;;;;;;;12.38;100.00;100250.88;5069134;28;20365;-64
2022/10/01 08:16:50;;;;;;;12.18;10.98;;;;;;;12.39;100.00;100252.66;5068727;28;20571;-64
2022/10/01 08:19:15;;;;;;;12.88;11.48;;;;;;;12.38;100.00;100261.28;5067853;28;20016;-63
2022/10/01 08:21:41;;;;;;;12.50;11.32;;;;;;;12.42;100.00;100260.50;5068507;28;20031;-64
2022/10/01 08:24:07;;;;;;;13.02;11.85;;;;;;;12.47;100.00;100266.63;5066854;28;20032;-62
2022/10/01 08:26:32;;;;;;;12.80;10.70;;;;;;;12.51;100.00;100272.75;5062775;28;20039;-64
2022/10/01 08:28:58;;;;;;;12.85;10.32;;;;;;;12.55;100.00;100281.47;5066548;28;20112;-64
2022/10/01 08:31:24;;;;;;;11.73;10.48;;;;;;;12.58;100.00;100287.56;5061290;28;20374;-64
2022/10/01 08:33:49;;;;;;;13.95;10.68;;;;;;;12.67;100.00;100285.94;5056675;28;20025;-64
2022/10/01 08:36:15;;;;;;;12.75;11.43;;;;;;;12.76;100.00;100287.81;5067037;28;20036;-64
2022/10/01 08:38:44;;;;;;;11.55;10.30;;;;;;;12.85;100.00;100293.16;5071943;28;20095;-65
2022/10/01 08:41:43;;;;;;;10.60;9.60;;;;;;;12.95;100.00;100291.56;5068472;28;20051;-65
2022/10/01 08:44:18;;;;;;;9.13;8.25;;;;;;;13.02;100.00;100300.31;5085722;28;20115;-65
2022/10/01 08:46:44;;;;;;;8.93;8.02;;;;;;;13.03;100.00;100304.66;5086479;28;20052;-65
2022/10/01 08:49:21;;;;;;;9.30;7.05;;;;;;;13.02;100.00;100300.31;5087732;28;20524;-65
2022/10/01 08:52:02;;;;;;;6.78;6.05;;;;;;;12.97;100.00;100298.50;5087589;28;20100;-65
2022/10/01 08:54:45;;;;;;;9.07;6.13;;;;;;;12.97;100.00;100297.63;5087661;28;20055;-65
2022/10/01 08:57:38;;;;;;;5.80;5.20;;;;;;;12.99;100.00;100302.88;5088269;28;20102;-65
2022/10/01 09:00:10;;;;;;;7.53;5.32;;;;;;;13.07;100.00;100303.84;5083533;28;20044;-65
2022/10/01 09:02:40;;;;;;;6.85;5.13;;;;;;;13.15;100.00;100304.81;5087888;28;20028;-65
2022/10/01 09:05:23;;;;;;;4.83;4.33;;;;;;;13.10;100.00;100303.88;5087927;28;20139;-65
2022/10/01 09:08:14;;;;;;;9.13;5.30;;;;;;;13.15;100.00;100307.41;5087262;28;20107;-65
2022/10/01 09:10:59;;;;;;;7.05;4.63;;;;;;;13.41;100.00;100314.69;5087960;28;20081;-65
2022/10/01 09:13:56;;;;;;;6.60;4.63;;;;;;;13.65;100.00;100318.44;5087853;28;20050;-65
2022/10/01 09:16:35;;;;;;;5.55;3.50;;;;;;;13.81;100.00;100316.84;5087975;28;20024;-65
2022/10/01 09:19:10;;;;;;;4.90;3.13;;;;;;;14.06;100.00;100321.44;5087598;28;20039;-65
2022/10/01 09:21:53;;;;;;;5.57;3.67;;;;;;;14.23;100.00;100328.56;5087477;28;20048;-65
2022/10/01 09:24:37;;;;;;;6.88;3.67;;;;;;;14.41;100.00;100326.09;5087372;28;20074;-65
2022/10/01 09:27:10;;;;;;;7.53;2.90;;;;;;;14.57;100.00;100326.19;5063520;28;20120;-65
2022/10/01 09:29:43;;;;;;;9.07;3.10;;;;;;;14.70;100.00;100334.09;5087039;28;20124;-65
2022/10/01 09:32:14;;;;;;;8.85;3.33;;;;;;;14.73;100.00;100326.31;5087969;28;20379;-65
2022/10/01 09:34:42;;;;;;;5.85;3.00;;;;;;;14.79;100.00;100342.00;5087254;28;20061;-65
2022/10/01 09:37:31;;;;;;;10.25;3.15;;;;;;;14.79;100.00;100335.94;5087126;28;20051;-65
2022/10/01 09:40:09;;;;;;;7.20;3.03;;;;;;;14.88;100.00;100334.25;5087277;28;20102;-65
2022/10/01 09:42:34;;;;;;;7.82;3.13;;;;;;;14.95;100.00;100343.00;5086759;28;20051;-65
2022/10/01 09:45:00;;;;;;;8.48;3.00;;;;;;;14.99;100.00;100343.88;5087011;28;20077;-65
2022/10/01 09:47:26;;;;;;;12.38;3.10;;;;;;;15.07;100.00;100339.59;5087056;28;20115;-65
2022/10/01 09:49:51;;;;;;;7.93;2.85;;;;;;;15.06;100.00;100340.44;5087063;28;20028;-65
2022/10/01 09:52:26;;;;;;;9.50;3.13;;;;;;;15.04;100.00;100347.38;5086986;28;20020;-65
2022/10/01 09:55:06;;;;;;;11.40;2.50;;;;;;;15.10;100.00;100341.34;5087438;28;20024;-65
2022/10/01 09:57:36;;;;;;;10.20;2.72;;;;;;;15.11;100.00;100343.94;5087065;28;20028;-65
2022/10/01 10:00:08;;;;;;;11.30;2.58;;;;;;;15.18;100.00;100336.16;5091534;28;20024;-65
2022/10/01 10:02:41;;;;;;;8.30;2.25;;;;;;;15.20;100.00;100342.28;5091196;28;20028;-65
2022/10/01 10:05:06;;;;;;;4.68;1.92;;;;;;;15.21;100.00;100346.63;5091670;28;20054;-65
2022/10/01 10:07:33;;;;;;;9.10;2.03;;;;;;;15.25;100.00;100348.38;5090690;28;20020;-65
2022/10/01 10:10:34;;;;;;;6.93;2.03;;;;;;;15.33;100.00;100351.91;5091635;28;20028;-65
2022/10/01 10:13:30;;;;;;;10.33;1.80;;;;;;;15.42;100.00;100356.28;5082692;28;20028;-65
2022/10/01 10:15:56;;;;;;;10.32;2.50;;;;;;;15.48;100.00;100360.66;5072549;28;20044;-65
2022/10/01 10:18:34;;;;;;;11.00;2.53;;;;;;;15.45;100.00;100363.25;5091290;28;20059;-65
2022/10/01 10:21:15;;;;;;;11.20;2.38;;;;;;;15.39;100.00;100381.50;5090453;28;20055;-65
2022/10/01 10:23:53;;;;;;;7.88;1.95;;;;;;;15.32;100.00;100389.31;5090874;28;20375;-65
2022/10/01 10:26:30;;;;;;;11.60;1.85;;;;;;;15.34;100.00;100390.16;5090513;28;20110;-65
2022/10/01 10:28:57;;;;;;;11.43;2.30;;;;;;;15.35;100.00;100398.88;5090885;28;20138;-65
2022/10/01 10:31:43;;;;;;;11.02;2.63;;;;;;;15.54;100.00;100405.06;5090594;28;20065;-66
2022/10/01 10:34:23;;;;;;;12.82;2.72;;;;;;;15.84;100.00;100395.63;5091054;28;20119;-65
2022/10/01 10:36:56;;;;;;;8.55;2.08;;;;;;;16.13;100.00;100404.44;5090818;28;20028;-65
2022/10/01 10:39:34;;;;;;;7.10;2.13;;;;;;;16.39;100.00;100413.16;5090898;28;20024;-65
2022/10/01 10:42:02;;;;;;;9.88;2.40;;;;;;;16.61;100.00;100413.16;5089787;28;20040;-65
2022/10/01 10:44:35;;;;;;;9.57;2.58;;;;;;;16.84;100.00;100418.41;5089323;28;20036;-65
2022/10/01 10:47:04;;;;;;;9.13;1.90;;;;;;;17.00;100.00;100413.16;5090480;28;20020;-65
2022/10/01 10:49:32;;;;;;;8.93;2.15;;;;;;;17.12;100.00;100413.19;5090304;28;20027;-65
2022/10/01 10:51:59;;;;;;;5.30;1.60;;;;;;;17.18;100.00;100422.75;5090601;28;20020;-65
2022/10/01 10:54:37;;;;;;;7.43;2.15;;;;;;;17.30;100.00;100428.84;5090480;28;20054;-65
2022/10/01 10:57:19;;;;;;;9.52;1.90;;;;;;;17.48;100.00;100436.66;5090066;28;20054;-66
2022/10/01 10:59:55;;;;;;;7.70;2.00;;;;;;;17.57;100.00;100440.09;5088790;28;20035;-66
2022/10/01 11:02:24;;;;;;;7.25;1.77;;;;;;;17.45;100.00;100446.25;5090659;28;20403;-66
2022/10/01 11:04:51;;;;;;;8.35;2.15;;;;;;;17.14;100.00;100447.19;5090261;28;20016;-65
2022/10/01 11:07:22;;;;;;;7.57;1.75;;;;;;;16.89;100.00;100455.03;5090518;28;20028;-66
2022/10/01 11:10:18;;;;;;;7.30;1.85;;;;;;;16.74;100.00;100443.72;5089247;28;20047;-66
2022/10/01 11:12:56;;;;;;;8.57;2.25;;;;;;;16.80;100.00;100454.16;5089461;28;20028;-65
2022/10/01 11:15:30;;;;;;;8.05;1.95;;;;;;;17.00;100.00;100468.13;5089871;28;20097;-65
2022/10/01 11:18:27;;;;;;;12.20;1.85;;;;;;;17.12;100.00;100470.75;5089297;28;20036;-65
2022/10/01 11:21:07;;;;;;;7.63;1.63;;;;;;;17.04;100.00;100473.34;5065442;28;20048;-65
2022/10/01 11:23:55;;;;;;;8.80;2.93;;;;;;;16.84;100.00;100481.19;5089552;28;20032;-65
2022/10/01 11:26:51;;;;;;;8.80;2.00;;;;;;;16.60;100.00;100469.88;5089778;28;20728;-65
2022/10/01 11:29:36;;;;;;;8.85;1.95;;;;;;;16.49;100.00;100488.16;5089134;28;20081;-65
2022/10/01 11:32:16;;;;;;;9.95;2.95;;;;;;;16.38;100.00;100493.34;5089661;28;20093;-65
2022/10/01 11:34:50;;;;;;;8.52;1.92;;;;;;;16.30;100.00;100487.22;5089387;28;20028;-65